createdAt,value
2018-01-10T00:00:17.941Z,20.60
2018-01-10T00:02:46.064Z,20.20
2018-01-10T00:05:14.240Z,18.50
2018-01-10T00:07:42.393Z,19.03
2018-01-10T00:10:10.550Z,20.40
2018-01-10T00:12:38.712Z,20.40
2018-01-10T00:15:06.860Z,14.60
2018-01-10T00:17:35.002Z,16.40
2018-01-10T00:20:03.146Z,16.70
2018-01-10T00:22:31.288Z,16.87
2018-01-10T00:24:59.444Z,18.70
2018-01-10T00:27:27.580Z,18.27
2018-01-10T00:29:56.478Z,19.13
2018-01-10T00:32:25.373Z,18.40
2018-01-10T00:34:54.281Z,18.47
2018-01-10T00:37:23.171Z,14.50
2018-01-10T00:39:51.318Z,11.87
2018-01-10T00:42:19.464Z,9.67
2018-01-10T00:44:48.361Z,8.60
2018-01-10T00:47:17.263Z,7.27
2018-01-10T00:49:46.165Z,6.40
2018-01-10T00:52:15.097Z,4.40
2018-01-10T00:54:43.990Z,4.97
2018-01-10T00:57:12.132Z,4.20
2018-01-10T00:59:40.310Z,4.30
2018-01-10T01:02:08.457Z,4.40
2018-01-10T01:04:36.584Z,5.23
2018-01-10T01:07:04.730Z,4.80
2018-01-10T01:09:32.872Z,4.90
2018-01-10T01:12:01.012Z,5.80
2018-01-10T01:14:29.961Z,5.90
2018-01-10T01:16:58.108Z,6.10
2018-01-10T01:19:28.440Z,6.97
2018-01-10T01:21:56.613Z,8.00
2018-01-10T01:24:25.599Z,8.73
2018-01-10T01:26:55.236Z,12.27
2018-01-10T01:29:23.402Z,13.70
2018-01-10T01:31:51.546Z,15.00
2018-01-10T01:34:19.689Z,13.53
2018-01-10T01:36:47.820Z,15.13
2018-01-10T01:39:15.970Z,15.03
2018-01-10T01:41:44.133Z,15.50
2018-01-10T01:44:12.265Z,15.13
2018-01-10T01:46:40.396Z,15.87
2018-01-10T01:49:09.297Z,17.97
2018-01-10T01:51:38.227Z,17.33
2018-01-10T01:54:07.110Z,16.73
2018-01-10T01:56:36.021Z,17.30
2018-01-10T01:59:04.912Z,17.20
2018-01-10T02:01:33.827Z,16.63
2018-01-10T02:04:02.714Z,16.40
2018-01-10T02:06:30.860Z,17.50
2018-01-10T02:08:58.988Z,18.33
2018-01-10T02:11:27.138Z,20.00
2018-01-10T02:13:56.055Z,17.03
2018-01-10T02:16:24.955Z,17.93
2018-01-10T02:18:53.100Z,18.47
2018-01-10T02:21:21.245Z,22.00
2018-01-10T02:23:49.389Z,24.10
2018-01-10T02:26:17.528Z,23.23
2018-01-10T02:28:45.680Z,23.17
2018-01-10T02:31:13.821Z,20.67
2018-01-10T02:33:41.964Z,20.87
2018-01-10T02:36:10.099Z,21.13
2018-01-10T02:38:39.004Z,19.77
2018-01-10T02:41:07.141Z,19.67
2018-01-10T02:43:35.280Z,20.33
2018-01-10T02:46:03.413Z,18.17
2018-01-10T02:48:31.560Z,19.07
2018-01-10T02:50:59.692Z,20.10
2018-01-10T02:53:27.863Z,20.00
2018-01-10T02:55:55.987Z,20.63
2018-01-10T02:58:24.908Z,18.83
2018-01-10T03:00:53.032Z,19.93
2018-01-10T03:03:21.177Z,18.60
2018-01-10T03:05:49.312Z,20.13
2018-01-10T03:08:17.456Z,19.80
2018-01-10T03:10:45.584Z,21.10
2018-01-10T03:13:13.755Z,19.43
2018-01-10T03:15:41.903Z,19.83
2018-01-10T03:18:10.808Z,16.87
2018-01-10T03:20:38.933Z,16.77
2018-01-10T03:23:07.845Z,16.87
2018-01-10T03:25:35.986Z,16.80
2018-01-10T03:28:04.631Z,15.50
2018-01-10T03:30:32.753Z,16.60
2018-01-10T03:33:01.665Z,15.30
2018-01-10T03:35:29.849Z,19.17
2018-01-10T03:37:57.960Z,20.30
2018-01-10T03:40:26.093Z,19.50
2018-01-10T03:42:54.265Z,20.20
2018-01-10T03:45:22.395Z,19.83
2018-01-10T03:47:51.477Z,17.47
2018-01-10T03:50:19.623Z,17.57
2018-01-10T03:52:47.755Z,24.87
2018-01-10T03:55:17.846Z,26.07
2018-01-10T03:57:45.952Z,21.57
2018-01-10T04:00:14.128Z,21.13
2018-01-10T04:02:43.129Z,22.77
2018-01-10T04:05:11.282Z,19.40
2018-01-10T04:07:39.972Z,15.30
2018-01-10T04:10:08.097Z,13.80
2018-01-10T04:12:36.244Z,15.30
2018-01-10T04:15:04.373Z,15.30
2018-01-10T04:17:32.508Z,14.97
2018-01-10T04:20:01.418Z,14.87
2018-01-10T04:22:30.331Z,14.87
2018-01-10T04:24:58.456Z,15.30
2018-01-10T04:27:26.621Z,14.50
2018-01-10T04:29:54.754Z,14.10
2018-01-10T04:32:22.919Z,14.17
2018-01-10T04:34:51.060Z,22.20
2018-01-10T04:37:19.203Z,21.80
2018-01-10T04:39:47.373Z,20.60
2018-01-10T04:42:15.494Z,19.97
2018-01-10T04:44:45.384Z,21.40
2018-01-10T04:47:14.321Z,15.17
2018-01-10T04:49:42.444Z,12.70
2018-01-10T04:52:10.602Z,14.70
2018-01-10T04:54:39.493Z,14.53
2018-01-10T04:57:09.344Z,13.50
2018-01-10T04:59:37.576Z,14.40
2018-01-10T05:02:06.482Z,13.13
2018-01-10T05:04:34.659Z,12.30
2018-01-10T05:07:02.798Z,12.03
2018-01-10T05:09:31.737Z,15.07
2018-01-10T05:11:59.876Z,14.33
2018-01-10T05:14:28.036Z,13.40
2018-01-10T05:16:56.173Z,13.47
2018-01-10T05:19:24.332Z,19.43
2018-01-10T05:21:53.231Z,18.40
2018-01-10T05:24:21.368Z,15.00
2018-01-10T05:26:49.504Z,17.03
2018-01-10T05:29:18.434Z,19.83
2018-01-10T05:31:47.456Z,20.60
2018-01-10T05:34:15.597Z,17.43
2018-01-10T05:36:44.492Z,16.40
2018-01-10T05:39:12.654Z,16.00
2018-01-10T05:41:40.788Z,13.63
2018-01-10T05:44:09.719Z,13.20
2018-01-10T05:46:37.852Z,13.67
2018-01-10T05:49:05.979Z,14.67
2018-01-10T05:51:34.117Z,14.23
2018-01-10T05:54:02.268Z,13.90
2018-01-10T05:56:30.416Z,14.73
2018-01-10T05:58:59.324Z,13.83
2018-01-10T06:01:28.225Z,14.20
2018-01-10T06:03:57.123Z,13.53
2018-01-10T06:06:26.029Z,14.27
2018-01-10T06:08:54.932Z,15.47
2018-01-10T06:11:23.845Z,15.00
2018-01-10T06:13:52.764Z,14.20
2018-01-10T06:16:20.924Z,13.33
2018-01-10T06:18:49.057Z,13.57
2018-01-10T06:21:17.200Z,12.97
2018-01-10T06:23:46.148Z,12.90
2018-01-10T06:26:14.301Z,12.50
2018-01-10T06:28:43.219Z,11.47
2018-01-10T06:31:11.356Z,12.30
2018-01-10T06:33:39.517Z,12.77
2018-01-10T06:36:08.414Z,12.50
2018-01-10T06:38:36.592Z,12.30
2018-01-10T06:41:04.714Z,12.70
2018-01-10T06:43:32.863Z,12.57
2018-01-10T06:46:01.010Z,11.90
2018-01-10T06:48:29.152Z,11.90
2018-01-10T06:50:57.363Z,11.53
2018-01-10T06:53:25.505Z,12.00
2018-01-10T06:55:53.665Z,11.67
2018-01-10T06:58:22.561Z,11.20
2018-01-10T07:00:51.496Z,11.70
2018-01-10T07:03:19.636Z,11.00
2018-01-10T07:05:47.780Z,10.60
2018-01-10T07:08:16.679Z,11.40
2018-01-10T07:10:44.829Z,12.30
2018-01-10T07:13:13.725Z,12.97
2018-01-10T07:15:42.640Z,12.20
2018-01-10T07:18:11.540Z,13.10
2018-01-10T07:20:42.368Z,12.10
2018-01-10T07:23:10.516Z,15.50
2018-01-10T07:25:38.670Z,11.50
2018-01-10T07:28:07.600Z,11.70
2018-01-10T07:30:35.739Z,12.77
2018-01-10T07:33:05.038Z,12.47
2018-01-10T07:35:34.692Z,14.10
2018-01-10T07:38:03.629Z,12.00
2018-01-10T07:40:32.295Z,11.30
2018-01-10T07:43:01.198Z,11.60
2018-01-10T07:45:30.125Z,11.30
2018-01-10T07:47:58.261Z,14.03
2018-01-10T07:50:26.403Z,13.10
2018-01-10T07:52:54.528Z,13.40
2018-01-10T07:55:22.676Z,14.40
2018-01-10T07:57:51.162Z,14.80
2018-01-10T08:00:19.324Z,14.53
2018-01-10T08:02:48.236Z,15.40
2018-01-10T08:05:16.384Z,14.10
2018-01-10T08:07:44.505Z,14.20
2018-01-10T08:10:12.661Z,16.20
2018-01-10T08:12:40.803Z,14.40
2018-01-10T08:15:09.451Z,14.00
2018-01-10T08:17:38.168Z,15.70
2018-01-10T08:20:06.337Z,14.80
2018-01-10T08:22:34.462Z,15.97
2018-01-10T08:25:02.612Z,18.60
2018-01-10T08:27:31.513Z,22.27
2018-01-10T08:29:59.704Z,19.10
2018-01-10T08:32:28.617Z,16.17
2018-01-10T08:35:00.212Z,14.63
2018-01-10T08:37:28.345Z,14.03
2018-01-10T08:39:56.490Z,15.37
2018-01-10T08:42:24.617Z,15.67
2018-01-10T08:44:52.758Z,16.83
2018-01-10T08:47:20.942Z,19.03
2018-01-10T08:49:49.071Z,20.40
2018-01-10T08:52:17.327Z,22.07
2018-01-10T08:54:45.464Z,20.73
2018-01-10T08:57:13.610Z,19.07
2018-01-10T08:59:41.740Z,24.17
2018-01-10T09:02:09.884Z,21.50
2018-01-10T09:04:38.049Z,21.60
2018-01-10T09:07:06.220Z,20.60
2018-01-10T09:09:34.365Z,20.50
2018-01-10T09:12:02.516Z,18.70
2018-01-10T09:14:31.463Z,21.73
2018-01-10T09:16:59.603Z,18.50
2018-01-10T09:19:28.548Z,17.13
2018-01-10T09:21:57.568Z,15.00
2018-01-10T09:24:26.263Z,15.00
2018-01-10T09:26:55.473Z,14.20
2018-01-10T09:29:23.593Z,11.13
2018-01-10T09:31:51.777Z,10.47
2018-01-10T09:34:20.666Z,10.47
2018-01-10T09:36:49.575Z,10.10
2018-01-10T09:39:18.494Z,9.47
2018-01-10T09:41:46.648Z,9.00
2018-01-10T09:44:15.836Z,9.40
2018-01-10T09:46:43.976Z,11.53
2018-01-10T09:49:12.876Z,10.10
2018-01-10T09:51:41.836Z,9.47
2018-01-10T09:54:09.965Z,11.57
2018-01-10T09:56:38.109Z,14.47
2018-01-10T09:59:06.256Z,14.17
2018-01-10T10:01:34.417Z,17.33
2018-01-10T10:04:02.564Z,17.40
2018-01-10T10:06:30.704Z,15.87
2018-01-10T10:08:58.858Z,13.70
2018-01-10T10:11:27.016Z,12.40
2018-01-10T10:13:55.902Z,9.10
2018-01-10T10:16:24.028Z,8.70
2018-01-10T10:18:53.108Z,7.93
2018-01-10T10:21:21.269Z,6.57
2018-01-10T10:23:49.394Z,7.97
2018-01-10T10:26:17.537Z,7.33
2018-01-10T10:28:45.716Z,5.17
2018-01-10T10:31:13.832Z,5.50
2018-01-10T10:33:41.984Z,4.97
2018-01-10T10:36:10.114Z,6.70
2018-01-10T10:38:38.250Z,5.30
2018-01-10T10:41:06.397Z,5.73
2018-01-10T10:43:34.525Z,4.30
2018-01-10T10:46:03.463Z,4.03
2018-01-10T10:48:31.594Z,4.77
2018-01-10T10:51:00.513Z,4.20
2018-01-10T10:53:28.674Z,3.90
2018-01-10T10:55:56.802Z,7.63
2018-01-10T10:58:24.981Z,6.10
2018-01-10T11:00:53.882Z,7.77
2018-01-10T11:03:23.688Z,6.90
2018-01-10T11:05:53.725Z,6.40
2018-01-10T11:08:22.636Z,3.57
2018-01-10T11:10:51.514Z,3.97
2018-01-10T11:13:20.505Z,2.97
2018-01-10T11:15:48.653Z,3.47
2018-01-10T11:18:18.959Z,6.27
2018-01-10T11:20:47.090Z,3.30
2018-01-10T11:23:16.124Z,2.73
2018-01-10T11:25:44.952Z,4.50
2018-01-10T11:28:26.453Z,5.80
2018-01-10T11:30:54.610Z,3.20
2018-01-10T11:33:22.751Z,9.17
2018-01-10T11:35:50.902Z,4.20
2018-01-10T11:38:19.803Z,3.33
2018-01-10T11:40:48.698Z,4.30
2018-01-10T11:43:16.844Z,3.70
2018-01-10T11:45:44.990Z,4.00
2018-01-10T11:48:14.682Z,3.50
2018-01-10T11:50:42.796Z,3.77
2018-01-10T11:53:11.716Z,3.23
2018-01-10T11:55:39.854Z,2.97
2018-01-10T11:58:07.990Z,2.93
2018-01-10T12:00:36.139Z,3.00
2018-01-10T12:03:04.264Z,2.77
2018-01-10T12:05:32.414Z,3.20
2018-01-10T12:08:00.545Z,3.03
2018-01-10T12:10:28.690Z,3.10
2018-01-10T12:12:57.604Z,4.03
2018-01-10T12:15:26.521Z,3.60
2018-01-10T12:17:56.202Z,3.50
2018-01-10T12:20:24.396Z,3.60
2018-01-10T12:22:53.938Z,3.23
2018-01-10T12:25:22.835Z,3.23
2018-01-10T12:27:51.749Z,3.47
2018-01-10T12:30:19.909Z,3.73
2018-01-10T12:32:48.037Z,4.87
2018-01-10T12:35:16.164Z,5.17
2018-01-10T12:37:44.321Z,3.30
2018-01-10T12:40:13.386Z,3.27
2018-01-10T12:42:43.129Z,3.20
2018-01-10T12:45:13.611Z,3.93
2018-01-10T12:47:41.772Z,2.90
2018-01-10T12:50:09.925Z,4.20
2018-01-10T12:52:38.079Z,4.07
2018-01-10T12:55:06.203Z,3.80
2018-01-10T12:57:35.119Z,3.97
2018-01-10T13:00:04.250Z,3.10
2018-01-10T13:02:32.402Z,3.40
2018-01-10T13:05:01.307Z,3.63
2018-01-10T13:07:30.249Z,4.13
2018-01-10T13:09:58.389Z,4.40
2018-01-10T13:12:26.553Z,4.40
2018-01-10T13:14:54.697Z,4.83
2018-01-10T13:17:23.472Z,4.70
2018-01-10T13:19:51.601Z,4.53
2018-01-10T13:22:19.756Z,4.87
2018-01-10T13:24:47.909Z,5.60
2018-01-10T13:27:16.067Z,4.50
2018-01-10T13:29:44.218Z,3.97
2018-01-10T13:32:12.389Z,4.63
2018-01-10T13:34:41.248Z,3.87
2018-01-10T13:37:09.388Z,4.00
2018-01-10T13:39:38.056Z,5.03
2018-01-10T13:42:06.997Z,6.10
2018-01-10T13:44:35.125Z,4.70
2018-01-10T13:47:03.252Z,5.33
2018-01-10T13:49:31.421Z,5.10
2018-01-10T13:51:59.548Z,5.70
2018-01-10T13:54:27.695Z,4.63
2018-01-10T13:56:56.600Z,5.00
2018-01-10T13:59:25.503Z,5.30
2018-01-10T14:01:54.405Z,5.80
2018-01-10T14:04:23.322Z,5.70
2018-01-10T14:06:52.246Z,5.83
2018-01-10T14:09:20.403Z,5.67
2018-01-10T14:11:49.352Z,5.90
2018-01-10T14:14:18.421Z,5.70
2018-01-10T14:16:47.984Z,6.43
2018-01-10T14:19:17.073Z,4.97
2018-01-10T14:21:45.222Z,5.20
2018-01-10T14:24:14.132Z,4.30
2018-01-10T14:26:43.063Z,4.50
2018-01-10T14:29:11.193Z,5.27
2018-01-10T14:31:39.352Z,5.57
2018-01-10T14:34:07.489Z,5.63
2018-01-10T14:36:36.409Z,5.20
2018-01-10T14:39:05.311Z,4.73
2018-01-10T14:41:33.502Z,5.00
2018-01-10T14:44:02.454Z,5.50
2018-01-10T14:46:30.608Z,5.67
2018-01-10T14:48:58.752Z,4.97
2018-01-10T14:51:26.898Z,4.80
2018-01-10T14:53:55.041Z,5.10
2018-01-10T14:56:23.997Z,5.07
2018-01-10T14:58:52.148Z,5.63
2018-01-10T15:01:20.284Z,5.77
2018-01-10T15:03:48.449Z,6.23
2018-01-10T15:06:16.564Z,5.23
2018-01-10T15:08:44.705Z,5.77
2018-01-10T15:11:13.488Z,5.40
2018-01-10T15:13:41.655Z,6.23
2018-01-10T15:16:09.770Z,5.63
2018-01-10T15:18:37.912Z,6.40
2018-01-10T15:21:06.055Z,6.23
2018-01-10T15:23:34.848Z,6.43
2018-01-10T15:26:03.057Z,5.57
2018-01-10T15:28:31.213Z,6.53
2018-01-10T15:30:59.385Z,6.27
2018-01-10T15:33:27.510Z,7.90
2018-01-10T15:35:55.685Z,8.17
2018-01-10T15:38:24.601Z,7.90
2018-01-10T15:40:52.760Z,6.63
2018-01-10T15:43:20.911Z,7.60
2018-01-10T15:45:50.562Z,6.20
2018-01-10T15:48:18.712Z,6.30
2018-01-10T15:50:46.860Z,5.80
2018-01-10T15:53:15.007Z,6.20
2018-01-10T15:55:43.138Z,7.20
2018-01-10T15:58:11.771Z,6.90
2018-01-10T16:00:39.926Z,7.60
2018-01-10T16:03:08.085Z,7.30
2018-01-10T16:05:36.213Z,8.07
2018-01-10T16:08:04.363Z,8.37
2018-01-10T16:10:32.505Z,8.93
2018-01-10T16:13:00.673Z,8.43
2018-01-10T16:15:28.830Z,7.97
2018-01-10T16:17:56.971Z,9.03
2018-01-10T16:20:25.905Z,8.30
2018-01-10T16:22:54.075Z,8.80
2018-01-10T16:25:22.989Z,7.53
2018-01-10T16:27:51.125Z,9.20
2018-01-10T16:30:19.286Z,11.77
2018-01-10T16:32:47.468Z,11.70
2018-01-10T16:35:15.603Z,13.70
2018-01-10T16:37:43.737Z,13.73
2018-01-10T16:40:11.884Z,13.50
2018-01-10T16:42:40.796Z,12.67
2018-01-10T16:45:09.729Z,13.23
2018-01-10T16:47:37.874Z,12.27
2018-01-10T16:50:06.601Z,10.30
2018-01-10T16:52:34.772Z,10.70
2018-01-10T16:55:03.687Z,13.33
2018-01-10T16:57:31.840Z,9.40
2018-01-10T17:00:00.022Z,10.57
2018-01-10T17:02:28.209Z,9.93
2018-01-10T17:04:56.359Z,9.63
2018-01-10T17:07:24.504Z,8.40
2018-01-10T17:09:53.431Z,9.90
2018-01-10T17:12:21.558Z,8.83
2018-01-10T17:14:49.718Z,9.60
2018-01-10T17:17:17.924Z,9.73
2018-01-10T17:19:46.163Z,10.80
2018-01-10T17:22:15.060Z,9.70
2018-01-10T17:24:43.977Z,9.70
2018-01-10T17:27:12.896Z,10.30
2018-01-10T17:29:41.378Z,14.03
2018-01-10T17:32:09.640Z,14.97
2018-01-10T17:34:39.783Z,12.83
2018-01-10T17:37:09.639Z,11.63
2018-01-10T17:39:38.406Z,10.17
2018-01-10T17:42:07.337Z,11.20
2018-01-10T17:44:35.470Z,9.50
2018-01-10T17:47:03.618Z,10.73
2018-01-10T17:49:31.755Z,10.17
2018-01-10T17:51:59.906Z,19.67
2018-01-10T17:54:28.076Z,9.93
2018-01-10T17:56:56.229Z,7.93
2018-01-10T17:59:25.128Z,8.83
2018-01-10T18:01:54.066Z,9.77
2018-01-10T18:04:22.205Z,10.37
2018-01-10T18:06:50.348Z,9.70
2018-01-10T18:09:18.496Z,9.00
2018-01-10T18:11:46.655Z,21.23
2018-01-10T18:14:14.806Z,25.90
2018-01-10T18:16:43.723Z,22.47
2018-01-10T18:19:11.874Z,17.63
2018-01-10T18:21:40.015Z,18.67
2018-01-10T18:24:08.181Z,20.03
2018-01-10T18:26:36.332Z,21.57
2018-01-10T18:29:04.505Z,20.57
2018-01-10T18:31:33.220Z,19.03
2018-01-10T18:34:01.405Z,14.53
2018-01-10T18:36:31.207Z,10.17
2018-01-10T18:39:00.127Z,11.37
2018-01-10T18:41:29.019Z,12.60
2018-01-10T18:43:57.939Z,17.53
2018-01-10T18:46:26.836Z,13.20
2018-01-10T18:48:55.034Z,10.83
2018-01-10T18:51:23.156Z,17.70
2018-01-10T18:53:51.321Z,9.70
2018-01-10T18:56:19.466Z,9.10
2018-01-10T18:58:48.374Z,8.53
2018-01-10T19:01:16.514Z,8.53
2018-01-10T19:03:44.644Z,9.23
2018-01-10T19:06:13.564Z,12.77
2018-01-10T19:08:42.490Z,11.40
2018-01-10T19:11:10.668Z,10.60
2018-01-10T19:13:38.850Z,10.43
2018-01-10T19:16:07.161Z,8.97
2018-01-10T19:18:35.309Z,9.63
2018-01-10T19:21:04.226Z,9.20
2018-01-10T19:23:33.143Z,9.00
2018-01-10T19:26:01.289Z,9.20
2018-01-10T19:28:29.414Z,8.60
2018-01-10T19:30:57.585Z,9.43
2018-01-10T19:33:26.471Z,9.10
2018-01-10T19:35:55.434Z,9.60
2018-01-10T19:38:23.591Z,10.40
2018-01-10T19:40:51.786Z,10.67
2018-01-10T19:43:19.914Z,10.43
2018-01-10T19:45:48.053Z,17.97
2018-01-10T19:48:16.228Z,9.17
2018-01-10T19:50:45.145Z,8.30
2018-01-10T19:53:14.060Z,7.50
2018-01-10T19:55:42.202Z,8.07
2018-01-10T19:58:11.122Z,8.33
2018-01-10T20:00:40.044Z,8.67
2018-01-10T20:03:08.164Z,8.87
2018-01-10T20:05:36.337Z,12.07
2018-01-10T20:08:04.603Z,9.13
2018-01-10T20:10:32.730Z,8.00
2018-01-10T20:13:00.874Z,8.80
2018-01-10T20:15:29.010Z,7.87
2018-01-10T20:17:57.192Z,9.27
2018-01-10T20:20:25.340Z,15.57
2018-01-10T20:22:53.500Z,8.47
2018-01-10T20:25:21.675Z,8.93
2018-01-10T20:27:50.670Z,8.53
2018-01-10T20:30:18.830Z,9.27
2018-01-10T20:32:48.533Z,12.10
2018-01-10T20:35:16.678Z,17.50
2018-01-10T20:37:45.615Z,16.37
2018-01-10T20:40:13.768Z,10.60
2018-01-10T20:42:41.923Z,10.70
2018-01-10T20:45:15.606Z,10.30
2018-01-10T20:47:43.728Z,12.50
2018-01-10T20:50:11.901Z,10.90
2018-01-10T20:52:40.085Z,12.40
2018-01-10T20:55:08.220Z,16.70
2018-01-10T20:57:37.166Z,15.70
2018-01-10T21:00:05.303Z,14.77
2018-01-10T21:02:34.245Z,13.70
2018-01-10T21:05:02.381Z,12.17
2018-01-10T21:07:30.553Z,10.90
2018-01-10T21:09:58.702Z,12.10
2018-01-10T21:12:27.718Z,12.73
2018-01-10T21:14:55.836Z,13.63
2018-01-10T21:17:24.008Z,12.47
2018-01-10T21:19:52.188Z,13.60
2018-01-10T21:22:20.333Z,12.60
2018-01-10T21:24:48.497Z,12.00
2018-01-10T21:27:17.406Z,13.43
2018-01-10T21:29:46.329Z,14.23
2018-01-10T21:32:14.466Z,14.70
2018-01-10T21:34:42.657Z,14.63
2018-01-10T21:37:10.814Z,13.23
2018-01-10T21:39:38.968Z,11.30
2018-01-10T21:42:07.206Z,10.30
2018-01-10T21:44:35.311Z,9.17
2018-01-10T21:47:03.444Z,9.40
2018-01-10T21:49:31.617Z,10.27
2018-01-10T21:51:59.790Z,11.73
2018-01-10T21:54:28.726Z,10.70
2018-01-10T21:56:56.877Z,10.40
2018-01-10T21:59:26.670Z,10.70
2018-01-10T22:01:54.802Z,10.70
2018-01-10T22:04:22.965Z,10.67
2018-01-10T22:06:51.117Z,11.37
2018-01-10T22:09:20.021Z,11.83
2018-01-10T22:11:48.188Z,10.70
2018-01-10T22:14:16.315Z,12.00
2018-01-10T22:16:45.324Z,10.33
2018-01-10T22:19:13.462Z,12.63
2018-01-10T22:21:41.659Z,11.60
2018-01-10T22:24:09.810Z,12.10
2018-01-10T22:26:38.700Z,13.07
2018-01-10T22:29:07.621Z,12.50
2018-01-10T22:31:35.774Z,12.70
2018-01-10T22:34:03.917Z,11.83
2018-01-10T22:36:32.096Z,12.23
2018-01-10T22:39:00.226Z,10.30
2018-01-10T22:41:28.388Z,10.50
2018-01-10T22:43:56.550Z,11.57
2018-01-10T22:46:24.718Z,11.00
2018-01-10T22:48:53.631Z,11.90
2018-01-10T22:51:21.764Z,10.30
2018-01-10T22:53:49.923Z,10.10
2018-01-10T22:56:18.057Z,10.23
2018-01-10T22:58:46.205Z,11.17
2018-01-10T23:01:14.896Z,12.40
2018-01-10T23:03:43.037Z,13.83
2018-01-10T23:06:11.944Z,15.87
2018-01-10T23:08:40.864Z,17.07
2018-01-10T23:11:09.794Z,18.23
2018-01-10T23:13:37.941Z,15.87
2018-01-10T23:16:06.851Z,14.13
2018-01-10T23:18:34.993Z,14.57
2018-01-10T23:21:03.143Z,14.60
2018-01-10T23:23:31.276Z,14.63
2018-01-10T23:25:59.441Z,11.90
2018-01-10T23:28:27.576Z,13.27
2018-01-10T23:30:56.482Z,11.93
2018-01-10T23:33:25.369Z,12.37
2018-01-10T23:35:54.300Z,9.80
2018-01-10T23:38:22.468Z,11.57
2018-01-10T23:40:51.382Z,11.87
2018-01-10T23:43:20.307Z,11.30
2018-01-10T23:45:48.453Z,11.93
2018-01-10T23:48:16.585Z,11.17
2018-01-10T23:50:44.741Z,11.53
2018-01-10T23:53:13.659Z,12.90
2018-01-10T23:55:41.795Z,12.33
2018-01-10T23:58:09.940Z,13.00
